sensor_id;sensor_type;location;lat;lon;timestamp;temperature;humidity
21602;DHT22;10963;50.934;4.668;2022-11-10T00:01:02;11.70;99.90
21602;DHT22;10963;50.934;4.668;2022-11-10T00:03:28;11.60;99.90
21602;DHT22;10963;50.934;4.668;2022-11-10T00:05:55;11.50;99.90
21602;DHT22;10963;50.934;4.668;2022-11-10T00:08:23;11.50;99.90
21602;DHT22;10963;50.934;4.668;2022-11-10T00:10:49;11.60;99.90
21602;DHT22;10963;50.934;4.668;2022-11-10T00:13:33;11.60;99.90
21602;DHT22;10963;50.934;4.668;2022-11-10T00:16:05;11.70;99.90
21602;DHT22;10963;50.934;4.668;2022-11-10T00:18:50;11.70;99.90
21602;DHT22;10963;50.934;4.668;2022-11-10T00:21:16;11.70;99.90
21602;DHT22;10963;50.934;4.668;2022-11-10T00:23:43;11.70;99.90
21602;DHT22;10963;50.934;4.668;2022-11-10T00:26:11;11.70;99.90
21602;DHT22;10963;50.934;4.668;2022-11-10T00:28:38;11.70;99.90
21602;DHT22;10963;50.934;4.668;2022-11-10T00:31:07;11.60;99.90
21602;DHT22;10963;50.934;4.668;2022-11-10T00:33:40;11.60;99.90
21602;DHT22;10963;50.934;4.668;2022-11-10T00:36:08;11.60;99.90
21602;DHT22;10963;50.934;4.668;2022-11-10T00:38:35;11.50;99.90
21602;DHT22;10963;50.934;4.668;2022-11-10T00:41:03;11.50;99.90
21602;DHT22;10963;50.934;4.668;2022-11-10T00:43:29;11.50;99.90
21602;DHT22;10963;50.934;4.668;2022-11-10T00:45:57;11.50;99.90
21602;DHT22;10963;50.934;4.668;2022-11-10T00:48:23;11.50;99.90
21602;DHT22;10963;50.934;4.668;2022-11-10T00:50:50;11.50;99.90
21602;DHT22;10963;50.934;4.668;2022-11-10T00:53:18;11.40;99.90
21602;DHT22;10963;50.934;4.668;2022-11-10T00:55:45;11.40;99.90
21602;DHT22;10963;50.934;4.668;2022-11-10T00:58:13;11.50;99.90
21602;DHT22;10963;50.934;4.668;2022-11-10T01:00:42;11.40;99.90
21602;DHT22;10963;50.934;4.668;2022-11-10T01:03:12;11.40;99.90
21602;DHT22;10963;50.934;4.668;2022-11-10T01:05:41;11.40;99.90
21602;DHT22;10963;50.934;4.668;2022-11-10T01:08:07;11.40;99.90
21602;DHT22;10963;50.934;4.668;2022-11-10T01:10:37;11.30;99.90
21602;DHT22;10963;50.934;4.668;2022-11-10T01:13:06;11.30;99.90
21602;DHT22;10963;50.934;4.668;2022-11-10T01:15:32;11.30;99.90
21602;DHT22;10963;50.934;4.668;2022-11-10T01:17:58;11.30;99.90
21602;DHT22;10963;50.934;4.668;2022-11-10T01:20:24;11.30;99.90
21602;DHT22;10963;50.934;4.668;2022-11-10T01:22:53;11.20;99.90
21602;DHT22;10963;50.934;4.668;2022-11-10T01:25:18;11.30;99.90
21602;DHT22;10963;50.934;4.668;2022-11-10T01:27:50;11.30;99.90
21602;DHT22;10963;50.934;4.668;2022-11-10T01:30:17;11.20;99.90
21602;DHT22;10963;50.934;4.668;2022-11-10T01:32:43;11.20;99.90
21602;DHT22;10963;50.934;4.668;2022-11-10T01:35:11;11.20;99.90
21602;DHT22;10963;50.934;4.668;2022-11-10T01:37:39;11.20;99.90
21602;DHT22;10963;50.934;4.668;2022-11-10T01:40:08;11.20;99.90
21602;DHT22;10963;50.934;4.668;2022-11-10T01:42:52;11.40;99.90
21602;DHT22;10963;50.934;4.668;2022-11-10T01:47:53;11.30;99.90
21602;DHT22;10963;50.934;4.668;2022-11-10T01:50:21;11.20;99.90
21602;DHT22;10963;50.934;4.668;2022-11-10T01:52:52;11.10;99.90
21602;DHT22;10963;50.934;4.668;2022-11-10T01:55:20;11.10;99.90
21602;DHT22;10963;50.934;4.668;2022-11-10T01:57:45;11.10;99.90
21602;DHT22;10963;50.934;4.668;2022-11-10T02:00:12;11.10;99.90
21602;DHT22;10963;50.934;4.668;2022-11-10T02:05:45;11.10;99.90
21602;DHT22;10963;50.934;4.668;2022-11-10T02:08:14;11.00;99.90
21602;DHT22;10963;50.934;4.668;2022-11-10T02:10:44;10.90;99.90
21602;DHT22;10963;50.934;4.668;2022-11-10T02:13:10;10.90;99.90
21602;DHT22;10963;50.934;4.668;2022-11-10T02:15:36;11.00;99.90
21602;DHT22;10963;50.934;4.668;2022-11-10T02:18:02;11.10;99.90
21602;DHT22;10963;50.934;4.668;2022-11-10T02:20:28;11.20;99.90
21602;DHT22;10963;50.934;4.668;2022-11-10T02:22:54;11.30;99.90
21602;DHT22;10963;50.934;4.668;2022-11-10T02:25:21;11.40;99.90
21602;DHT22;10963;50.934;4.668;2022-11-10T02:27:48;11.30;99.90
21602;DHT22;10963;50.934;4.668;2022-11-10T02:30:14;11.30;99.90
21602;DHT22;10963;50.934;4.668;2022-11-10T02:32:43;11.30;99.90
21602;DHT22;10963;50.934;4.668;2022-11-10T02:35:09;11.30;99.90
21602;DHT22;10963;50.934;4.668;2022-11-10T02:37:34;11.20;99.90
21602;DHT22;10963;50.934;4.668;2022-11-10T02:40:03;11.20;99.90
21602;DHT22;10963;50.934;4.668;2022-11-10T02:42:32;11.20;99.90
21602;DHT22;10963;50.934;4.668;2022-11-10T02:44:58;11.20;99.90
21602;DHT22;10963;50.934;4.668;2022-11-10T02:47:28;11.30;99.90
21602;DHT22;10963;50.934;4.668;2022-11-10T02:49:56;11.20;99.90
21602;DHT22;10963;50.934;4.668;2022-11-10T02:52:22;11.20;99.90
21602;DHT22;10963;50.934;4.668;2022-11-10T02:54:50;11.20;99.90
21602;DHT22;10963;50.934;4.668;2022-11-10T02:57:16;11.30;99.90
21602;DHT22;10963;50.934;4.668;2022-11-10T02:59:42;11.30;99.90
21602;DHT22;10963;50.934;4.668;2022-11-10T03:02:08;11.10;99.90
21602;DHT22;10963;50.934;4.668;2022-11-10T03:04:35;11.10;99.90
21602;DHT22;10963;50.934;4.668;2022-11-10T03:07:06;11.00;99.90
21602;DHT22;10963;50.934;4.668;2022-11-10T03:09:31;10.90;99.90
21602;DHT22;10963;50.934;4.668;2022-11-10T03:11:57;10.90;99.90
21602;DHT22;10963;50.934;4.668;2022-11-10T03:14:23;10.90;99.90
21602;DHT22;10963;50.934;4.668;2022-11-10T03:16:48;11.00;99.90
21602;DHT22;10963;50.934;4.668;2022-11-10T03:19:14;11.00;99.90
21602;DHT22;10963;50.934;4.668;2022-11-10T03:21:40;10.90;99.90
21602;DHT22;10963;50.934;4.668;2022-11-10T03:24:06;10.80;99.90
21602;DHT22;10963;50.934;4.668;2022-11-10T03:26:34;10.70;99.90
21602;DHT22;10963;50.934;4.668;2022-11-10T03:29:02;10.70;99.90
21602;DHT22;10963;50.934;4.668;2022-11-10T03:31:28;10.70;99.90
21602;DHT22;10963;50.934;4.668;2022-11-10T03:33:54;10.60;99.90
21602;DHT22;10963;50.934;4.668;2022-11-10T03:36:22;10.60;99.90
21602;DHT22;10963;50.934;4.668;2022-11-10T03:38:52;10.50;99.90
21602;DHT22;10963;50.934;4.668;2022-11-10T03:41:20;10.50;99.90
21602;DHT22;10963;50.934;4.668;2022-11-10T03:43:47;10.50;99.90
21602;DHT22;10963;50.934;4.668;2022-11-10T03:46:13;10.60;99.90
21602;DHT22;10963;50.934;4.668;2022-11-10T03:48:39;10.60;99.90
21602;DHT22;10963;50.934;4.668;2022-11-10T03:51:05;10.50;99.90
21602;DHT22;10963;50.934;4.668;2022-11-10T03:53:34;10.40;99.90
21602;DHT22;10963;50.934;4.668;2022-11-10T03:56:04;10.50;99.90
21602;DHT22;10963;50.934;4.668;2022-11-10T03:58:30;10.50;99.90
21602;DHT22;10963;50.934;4.668;2022-11-10T04:00:56;10.50;99.90
21602;DHT22;10963;50.934;4.668;2022-11-10T04:03:22;10.40;99.90
21602;DHT22;10963;50.934;4.668;2022-11-10T04:05:51;10.40;99.90
21602;DHT22;10963;50.934;4.668;2022-11-10T04:08:35;10.50;99.90
21602;DHT22;10963;50.934;4.668;2022-11-10T04:11:20;10.40;99.90
21602;DHT22;10963;50.934;4.668;2022-11-10T04:14:04;10.20;99.90
21602;DHT22;10963;50.934;4.668;2022-11-10T04:16:48;10.00;99.90
21602;DHT22;10963;50.934;4.668;2022-11-10T04:19:17;10.00;99.90
21602;DHT22;10963;50.934;4.668;2022-11-10T04:21:45;10.00;99.90
21602;DHT22;10963;50.934;4.668;2022-11-10T04:24:10;10.10;99.90
21602;DHT22;10963;50.934;4.668;2022-11-10T04:26:36;10.20;99.90
21602;DHT22;10963;50.934;4.668;2022-11-10T04:29:07;10.20;99.90
21602;DHT22;10963;50.934;4.668;2022-11-10T04:31:37;10.20;99.90
21602;DHT22;10963;50.934;4.668;2022-11-10T04:34:05;10.10;99.90
21602;DHT22;10963;50.934;4.668;2022-11-10T04:36:37;10.10;99.90
21602;DHT22;10963;50.934;4.668;2022-11-10T04:39:04;10.10;99.90
21602;DHT22;10963;50.934;4.668;2022-11-10T04:41:34;10.00;99.90
21602;DHT22;10963;50.934;4.668;2022-11-10T04:44:01;10.10;99.90
21602;DHT22;10963;50.934;4.668;2022-11-10T04:46:44;10.10;99.90
21602;DHT22;10963;50.934;4.668;2022-11-10T04:49:13;10.00;99.90
21602;DHT22;10963;50.934;4.668;2022-11-10T04:51:39;10.00;99.90
21602;DHT22;10963;50.934;4.668;2022-11-10T04:54:09;9.90;99.90
21602;DHT22;10963;50.934;4.668;2022-11-10T04:56:35;9.90;99.90
21602;DHT22;10963;50.934;4.668;2022-11-10T04:59:01;9.90;99.90
21602;DHT22;10963;50.934;4.668;2022-11-10T05:01:28;9.90;99.90
21602;DHT22;10963;50.934;4.668;2022-11-10T05:03:56;9.90;99.90
21602;DHT22;10963;50.934;4.668;2022-11-10T05:06:23;9.80;99.90
21602;DHT22;10963;50.934;4.668;2022-11-10T05:08:50;9.80;99.90
21602;DHT22;10963;50.934;4.668;2022-11-10T05:11:16;9.80;99.90
21602;DHT22;10963;50.934;4.668;2022-11-10T05:13:43;9.80;99.90
21602;DHT22;10963;50.934;4.668;2022-11-10T05:16:09;9.70;99.90
21602;DHT22;10963;50.934;4.668;2022-11-10T05:18:36;9.80;99.90
21602;DHT22;10963;50.934;4.668;2022-11-10T05:21:06;9.80;99.90
21602;DHT22;10963;50.934;4.668;2022-11-10T05:23:33;9.80;99.90
21602;DHT22;10963;50.934;4.668;2022-11-10T05:26:12;9.80;99.90
21602;DHT22;10963;50.934;4.668;2022-11-10T05:28:39;9.80;99.90
21602;DHT22;10963;50.934;4.668;2022-11-10T05:31:10;9.70;99.90
21602;DHT22;10963;50.934;4.668;2022-11-10T05:33:36;9.60;99.90
21602;DHT22;10963;50.934;4.668;2022-11-10T05:36:03;9.60;99.90
21602;DHT22;10963;50.934;4.668;2022-11-10T05:38:29;9.70;99.90
21602;DHT22;10963;50.934;4.668;2022-11-10T05:40:55;9.70;99.90
21602;DHT22;10963;50.934;4.668;2022-11-10T05:43:21;9.70;99.90
21602;DHT22;10963;50.934;4.668;2022-11-10T05:45:47;9.60;99.90
21602;DHT22;10963;50.934;4.668;2022-11-10T05:48:19;9.50;99.90
21602;DHT22;10963;50.934;4.668;2022-11-10T05:50:45;9.50;99.90
21602;DHT22;10963;50.934;4.668;2022-11-10T05:53:11;9.50;99.90
21602;DHT22;10963;50.934;4.668;2022-11-10T05:55:36;9.60;99.90
21602;DHT22;10963;50.934;4.668;2022-11-10T05:58:02;9.50;99.90
21602;DHT22;10963;50.934;4.668;2022-11-10T06:00:31;9.60;99.90
21602;DHT22;10963;50.934;4.668;2022-11-10T06:05:25;9.60;99.90
21602;DHT22;10963;50.934;4.668;2022-11-10T06:07:51;9.60;99.90
21602;DHT22;10963;50.934;4.668;2022-11-10T06:10:17;9.50;99.90
21602;DHT22;10963;50.934;4.668;2022-11-10T06:12:43;9.50;99.90
21602;DHT22;10963;50.934;4.668;2022-11-10T06:15:12;9.60;99.90
21602;DHT22;10963;50.934;4.668;2022-11-10T06:17:39;9.60;99.90
21602;DHT22;10963;50.934;4.668;2022-11-10T06:20:05;9.50;99.90
21602;DHT22;10963;50.934;4.668;2022-11-10T06:22:32;9.50;99.90
21602;DHT22;10963;50.934;4.668;2022-11-10T06:25:00;9.60;99.90
21602;DHT22;10963;50.934;4.668;2022-11-10T06:27:25;9.60;99.90
21602;DHT22;10963;50.934;4.668;2022-11-10T06:29:51;9.50;99.90
21602;DHT22;10963;50.934;4.668;2022-11-10T06:32:17;9.60;99.90
21602;DHT22;10963;50.934;4.668;2022-11-10T06:34:43;9.50;99.90
21602;DHT22;10963;50.934;4.668;2022-11-10T06:37:08;9.50;99.90
21602;DHT22;10963;50.934;4.668;2022-11-10T06:39:34;9.40;99.90
21602;DHT22;10963;50.934;4.668;2022-11-10T06:42:00;9.40;99.90
21602;DHT22;10963;50.934;4.668;2022-11-10T06:44:25;9.40;99.90
21602;DHT22;10963;50.934;4.668;2022-11-10T06:46:53;9.40;99.90
21602;DHT22;10963;50.934;4.668;2022-11-10T06:49:19;9.40;99.90
21602;DHT22;10963;50.934;4.668;2022-11-10T06:51:45;9.40;99.90
21602;DHT22;10963;50.934;4.668;2022-11-10T06:54:13;9.30;99.90
21602;DHT22;10963;50.934;4.668;2022-11-10T06:56:39;9.40;99.90
21602;DHT22;10963;50.934;4.668;2022-11-10T06:59:07;9.40;99.90
21602;DHT22;10963;50.934;4.668;2022-11-10T07:01:32;9.40;99.90
21602;DHT22;10963;50.934;4.668;2022-11-10T07:03:58;9.40;99.90
21602;DHT22;10963;50.934;4.668;2022-11-10T07:06:26;9.40;99.90
21602;DHT22;10963;50.934;4.668;2022-11-10T07:08:51;9.50;99.90
21602;DHT22;10963;50.934;4.668;2022-11-10T07:11:17;9.50;99.90
21602;DHT22;10963;50.934;4.668;2022-11-10T07:13:43;9.50;99.90
21602;DHT22;10963;50.934;4.668;2022-11-10T07:16:10;9.50;99.90
21602;DHT22;10963;50.934;4.668;2022-11-10T07:18:36;9.50;99.90
21602;DHT22;10963;50.934;4.668;2022-11-10T07:21:05;9.60;99.90
21602;DHT22;10963;50.934;4.668;2022-11-10T07:23:31;9.60;99.90
21602;DHT22;10963;50.934;4.668;2022-11-10T07:26:01;9.70;99.90
21602;DHT22;10963;50.934;4.668;2022-11-10T07:28:27;9.60;99.90
21602;DHT22;10963;50.934;4.668;2022-11-10T07:30:53;9.60;99.90
21602;DHT22;10963;50.934;4.668;2022-11-10T07:33:23;9.60;99.90
21602;DHT22;10963;50.934;4.668;2022-11-10T07:35:52;9.60;99.90
21602;DHT22;10963;50.934;4.668;2022-11-10T07:38:19;9.70;99.90
21602;DHT22;10963;50.934;4.668;2022-11-10T07:40:48;9.70;99.90
21602;DHT22;10963;50.934;4.668;2022-11-10T07:43:14;9.80;99.90
21602;DHT22;10963;50.934;4.668;2022-11-10T07:45:40;9.80;99.90
21602;DHT22;10963;50.934;4.668;2022-11-10T07:48:08;9.70;99.90
21602;DHT22;10963;50.934;4.668;2022-11-10T07:50:34;9.80;99.90
21602;DHT22;10963;50.934;4.668;2022-11-10T07:53:07;9.90;99.90
21602;DHT22;10963;50.934;4.668;2022-11-10T07:55:37;9.90;99.90
21602;DHT22;10963;50.934;4.668;2022-11-10T07:58:03;9.80;99.90
21602;DHT22;10963;50.934;4.668;2022-11-10T08:00:30;9.80;99.90
21602;DHT22;10963;50.934;4.668;2022-11-10T08:03:06;9.90;99.90
21602;DHT22;10963;50.934;4.668;2022-11-10T08:05:36;10.00;99.90
21602;DHT22;10963;50.934;4.668;2022-11-10T08:08:02;10.10;99.90
21602;DHT22;10963;50.934;4.668;2022-11-10T08:10:33;10.20;99.90
21602;DHT22;10963;50.934;4.668;2022-11-10T08:13:02;10.10;99.90
21602;DHT22;10963;50.934;4.668;2022-11-10T08:15:29;10.30;99.90
21602;DHT22;10963;50.934;4.668;2022-11-10T08:18:00;10.30;99.90
21602;DHT22;10963;50.934;4.668;2022-11-10T08:20:26;10.40;99.90
21602;DHT22;10963;50.934;4.668;2022-11-10T08:22:59;10.40;99.90
21602;DHT22;10963;50.934;4.668;2022-11-10T08:25:27;10.40;99.90
21602;DHT22;10963;50.934;4.668;2022-11-10T08:28:09;10.50;99.90
21602;DHT22;10963;50.934;4.668;2022-11-10T08:30:36;10.50;99.90
21602;DHT22;10963;50.934;4.668;2022-11-10T08:33:04;10.60;99.90
21602;DHT22;10963;50.934;4.668;2022-11-10T08:35:35;10.70;99.90
21602;DHT22;10963;50.934;4.668;2022-11-10T08:38:15;10.70;99.90
21602;DHT22;10963;50.934;4.668;2022-11-10T08:40:46;10.80;99.90
21602;DHT22;10963;50.934;4.668;2022-11-10T08:43:16;11.00;99.90
21602;DHT22;10963;50.934;4.668;2022-11-10T08:45:47;11.10;99.90
21602;DHT22;10963;50.934;4.668;2022-11-10T08:48:15;11.20;99.90
21602;DHT22;10963;50.934;4.668;2022-11-10T08:50:41;11.20;99.90
21602;DHT22;10963;50.934;4.668;2022-11-10T08:53:13;11.30;99.90
21602;DHT22;10963;50.934;4.668;2022-11-10T08:55:43;11.50;99.90
21602;DHT22;10963;50.934;4.668;2022-11-10T08:58:21;11.50;99.90
21602;DHT22;10963;50.934;4.668;2022-11-10T09:00:50;11.60;99.90
21602;DHT22;10963;50.934;4.668;2022-11-10T09:03:17;11.60;99.90
21602;DHT22;10963;50.934;4.668;2022-11-10T09:05:44;11.70;99.90
21602;DHT22;10963;50.934;4.668;2022-11-10T09:08:13;11.80;99.90
21602;DHT22;10963;50.934;4.668;2022-11-10T09:10:44;11.80;99.90
21602;DHT22;10963;50.934;4.668;2022-11-10T09:13:12;11.90;99.90
21602;DHT22;10963;50.934;4.668;2022-11-10T09:15:39;12.10;99.90
21602;DHT22;10963;50.934;4.668;2022-11-10T09:18:06;12.10;99.90
21602;DHT22;10963;50.934;4.668;2022-11-10T09:20:34;12.20;99.90
21602;DHT22;10963;50.934;4.668;2022-11-10T09:25:30;12.40;99.90
21602;DHT22;10963;50.934;4.668;2022-11-10T09:27:56;12.50;99.90
21602;DHT22;10963;50.934;4.668;2022-11-10T09:30:22;12.60;99.90
21602;DHT22;10963;50.934;4.668;2022-11-10T09:32:59;12.60;99.90
21602;DHT22;10963;50.934;4.668;2022-11-10T09:35:25;12.80;99.90
21602;DHT22;10963;50.934;4.668;2022-11-10T09:37:51;12.90;99.90
21602;DHT22;10963;50.934;4.668;2022-11-10T09:43:05;12.90;99.90
21602;DHT22;10963;50.934;4.668;2022-11-10T09:45:39;13.10;99.90
21602;DHT22;10963;50.934;4.668;2022-11-10T09:48:10;13.10;99.90
21602;DHT22;10963;50.934;4.668;2022-11-10T09:53:36;13.30;99.90
21602;DHT22;10963;50.934;4.668;2022-11-10T09:56:06;13.30;99.90
21602;DHT22;10963;50.934;4.668;2022-11-10T09:58:42;13.30;99.90
21602;DHT22;10963;50.934;4.668;2022-11-10T10:06:44;13.60;99.90
21602;DHT22;10963;50.934;4.668;2022-11-10T10:09:35;13.70;99.90
21602;DHT22;10963;50.934;4.668;2022-11-10T10:13:00;13.70;99.90
21602;DHT22;10963;50.934;4.668;2022-11-10T10:16:16;13.80;99.90
21602;DHT22;10963;50.934;4.668;2022-11-10T10:18:43;13.90;99.90
21602;DHT22;10963;50.934;4.668;2022-11-10T10:23:45;14.10;99.90
21602;DHT22;10963;50.934;4.668;2022-11-10T10:26:20;14.10;99.90
21602;DHT22;10963;50.934;4.668;2022-11-10T10:28:50;14.10;99.90
21602;DHT22;10963;50.934;4.668;2022-11-10T10:31:39;14.20;99.90
21602;DHT22;10963;50.934;4.668;2022-11-10T10:34:14;14.20;99.90
21602;DHT22;10963;50.934;4.668;2022-11-10T10:36:40;14.30;99.90
21602;DHT22;10963;50.934;4.668;2022-11-10T10:41:41;14.40;99.90
21602;DHT22;10963;50.934;4.668;2022-11-10T10:44:17;14.40;99.90
21602;DHT22;10963;50.934;4.668;2022-11-10T10:46:57;14.40;99.90
21602;DHT22;10963;50.934;4.668;2022-11-10T10:49:26;14.50;99.90
21602;DHT22;10963;50.934;4.668;2022-11-10T10:54:33;14.60;99.90
21602;DHT22;10963;50.934;4.668;2022-11-10T10:59:34;14.80;99.90
21602;DHT22;10963;50.934;4.668;2022-11-10T11:02:00;15.10;99.90
21602;DHT22;10963;50.934;4.668;2022-11-10T11:04:35;15.30;99.90
21602;DHT22;10963;50.934;4.668;2022-11-10T11:07:18;15.50;99.90
21602;DHT22;10963;50.934;4.668;2022-11-10T11:09:44;15.60;99.90
21602;DHT22;10963;50.934;4.668;2022-11-10T11:12:13;15.60;99.90
21602;DHT22;10963;50.934;4.668;2022-11-10T11:14:39;15.40;99.90
21602;DHT22;10963;50.934;4.668;2022-11-10T11:17:19;15.40;99.90
21602;DHT22;10963;50.934;4.668;2022-11-10T11:19:46;15.60;99.90
21602;DHT22;10963;50.934;4.668;2022-11-10T11:28:12;15.90;99.90
21602;DHT22;10963;50.934;4.668;2022-11-10T11:35:56;15.90;99.90
21602;DHT22;10963;50.934;4.668;2022-11-10T11:38:57;15.90;99.90
21602;DHT22;10963;50.934;4.668;2022-11-10T11:42:14;16.00;99.90
21602;DHT22;10963;50.934;4.668;2022-11-10T11:44:42;15.70;99.90
21602;DHT22;10963;50.934;4.668;2022-11-10T12:01:51;16.40;99.90
21602;DHT22;10963;50.934;4.668;2022-11-10T12:06:57;16.50;99.90
21602;DHT22;10963;50.934;4.668;2022-11-10T12:17:40;16.40;99.90
21602;DHT22;10963;50.934;4.668;2022-11-10T12:28:41;16.70;99.90
21602;DHT22;10963;50.934;4.668;2022-11-10T12:31:14;16.50;99.90
21602;DHT22;10963;50.934;4.668;2022-11-10T12:33:56;16.60;99.90
21602;DHT22;10963;50.934;4.668;2022-11-10T12:36:27;16.50;99.90
21602;DHT22;10963;50.934;4.668;2022-11-10T12:39:17;16.40;99.90
21602;DHT22;10963;50.934;4.668;2022-11-10T12:41:50;16.30;99.90
21602;DHT22;10963;50.934;4.668;2022-11-10T12:44:38;16.30;99.90
21602;DHT22;10963;50.934;4.668;2022-11-10T12:47:14;16.30;99.90
21602;DHT22;10963;50.934;4.668;2022-11-10T12:52:31;16.30;99.90
21602;DHT22;10963;50.934;4.668;2022-11-10T12:54:59;16.30;99.90
21602;DHT22;10963;50.934;4.668;2022-11-10T12:57:27;16.50;99.90
21602;DHT22;10963;50.934;4.668;2022-11-10T13:00:00;16.50;99.90
21602;DHT22;10963;50.934;4.668;2022-11-10T13:02:44;16.70;99.90
21602;DHT22;10963;50.934;4.668;2022-11-10T13:07:46;16.80;99.90
21602;DHT22;10963;50.934;4.668;2022-11-10T13:10:24;16.70;99.90
21602;DHT22;10963;50.934;4.668;2022-11-10T13:13:06;16.70;99.90
21602;DHT22;10963;50.934;4.668;2022-11-10T13:18:10;16.50;99.90
21602;DHT22;10963;50.934;4.668;2022-11-10T13:20:45;16.50;99.90
21602;DHT22;10963;50.934;4.668;2022-11-10T13:23:28;16.50;99.90
21602;DHT22;10963;50.934;4.668;2022-11-10T13:26:01;16.60;99.90
21602;DHT22;10963;50.934;4.668;2022-11-10T13:36:43;16.40;99.90
21602;DHT22;10963;50.934;4.668;2022-11-10T13:41:48;16.40;99.90
21602;DHT22;10963;50.934;4.668;2022-11-10T13:47:11;16.20;99.90
21602;DHT22;10963;50.934;4.668;2022-11-10T13:53:04;16.40;99.90
21602;DHT22;10963;50.934;4.668;2022-11-10T13:58:24;16.50;99.90
21602;DHT22;10963;50.934;4.668;2022-11-10T14:06:22;16.40;99.90
21602;DHT22;10963;50.934;4.668;2022-11-10T14:08:58;16.40;99.90
21602;DHT22;10963;50.934;4.668;2022-11-10T14:11:36;16.50;99.90
21602;DHT22;10963;50.934;4.668;2022-11-10T14:16:47;16.30;99.90
21602;DHT22;10963;50.934;4.668;2022-11-10T14:22:21;16.20;99.90
21602;DHT22;10963;50.934;4.668;2022-11-10T14:25:01;16.10;99.90
21602;DHT22;10963;50.934;4.668;2022-11-10T14:27:31;16.10;99.90
21602;DHT22;10963;50.934;4.668;2022-11-10T14:30:28;16.20;99.90
21602;DHT22;10963;50.934;4.668;2022-11-10T14:33:09;16.10;99.90
21602;DHT22;10963;50.934;4.668;2022-11-10T14:35:56;16.10;99.90
21602;DHT22;10963;50.934;4.668;2022-11-10T14:38:26;15.90;99.90
21602;DHT22;10963;50.934;4.668;2022-11-10T14:41:00;15.90;99.90
21602;DHT22;10963;50.934;4.668;2022-11-10T14:43:27;15.90;99.90
21602;DHT22;10963;50.934;4.668;2022-11-10T14:45:53;15.90;99.90
21602;DHT22;10963;50.934;4.668;2022-11-10T14:48:24;15.90;99.90
21602;DHT22;10963;50.934;4.668;2022-11-10T14:50:53;15.90;99.90
21602;DHT22;10963;50.934;4.668;2022-11-10T14:53:25;15.90;99.90
21602;DHT22;10963;50.934;4.668;2022-11-10T14:55:56;15.90;99.90
21602;DHT22;10963;50.934;4.668;2022-11-10T14:58:24;15.90;99.90
21602;DHT22;10963;50.934;4.668;2022-11-10T15:00:53;15.70;99.90
21602;DHT22;10963;50.934;4.668;2022-11-10T15:03:28;15.70;99.90
21602;DHT22;10963;50.934;4.668;2022-11-10T15:05:56;15.70;99.90
21602;DHT22;10963;50.934;4.668;2022-11-10T15:08:25;15.70;99.90
21602;DHT22;10963;50.934;4.668;2022-11-10T15:10:51;15.60;99.90
21602;DHT22;10963;50.934;4.668;2022-11-10T15:16:22;15.30;99.90
21602;DHT22;10963;50.934;4.668;2022-11-10T15:18:52;15.10;99.90
21602;DHT22;10963;50.934;4.668;2022-11-10T15:21:29;15.10;99.90
21602;DHT22;10963;50.934;4.668;2022-11-10T15:24:03;15.20;99.90
21602;DHT22;10963;50.934;4.668;2022-11-10T15:26:33;15.20;99.90
21602;DHT22;10963;50.934;4.668;2022-11-10T15:29:02;15.00;99.90
21602;DHT22;10963;50.934;4.668;2022-11-10T15:31:31;15.00;99.90
21602;DHT22;10963;50.934;4.668;2022-11-10T15:34:02;15.00;99.90
21602;DHT22;10963;50.934;4.668;2022-11-10T15:36:33;14.80;99.90
21602;DHT22;10963;50.934;4.668;2022-11-10T15:41:33;14.70;99.90
21602;DHT22;10963;50.934;4.668;2022-11-10T15:44:18;14.60;99.90
21602;DHT22;10963;50.934;4.668;2022-11-10T15:46:49;14.60;99.90
21602;DHT22;10963;50.934;4.668;2022-11-10T15:51:50;14.50;99.90
21602;DHT22;10963;50.934;4.668;2022-11-10T15:54:23;14.40;99.90
21602;DHT22;10963;50.934;4.668;2022-11-10T15:56:49;14.40;99.90
21602;DHT22;10963;50.934;4.668;2022-11-10T15:59:20;14.30;99.90
21602;DHT22;10963;50.934;4.668;2022-11-10T16:01:45;14.20;99.90
21602;DHT22;10963;50.934;4.668;2022-11-10T16:04:14;14.20;99.90
21602;DHT22;10963;50.934;4.668;2022-11-10T16:06:39;14.20;99.90
21602;DHT22;10963;50.934;4.668;2022-11-10T16:09:11;14.00;99.90
21602;DHT22;10963;50.934;4.668;2022-11-10T16:11:40;13.80;99.90
21602;DHT22;10963;50.934;4.668;2022-11-10T16:14:13;13.80;99.90
21602;DHT22;10963;50.934;4.668;2022-11-10T16:16:42;13.80;99.90
21602;DHT22;10963;50.934;4.668;2022-11-10T16:19:13;13.90;99.90
21602;DHT22;10963;50.934;4.668;2022-11-10T16:21:42;14.00;99.90
21602;DHT22;10963;50.934;4.668;2022-11-10T16:24:09;14.00;99.90
21602;DHT22;10963;50.934;4.668;2022-11-10T16:26:35;14.00;99.90
21602;DHT22;10963;50.934;4.668;2022-11-10T16:29:11;14.10;99.90
21602;DHT22;10963;50.934;4.668;2022-11-10T16:31:42;13.90;99.90
21602;DHT22;10963;50.934;4.668;2022-11-10T16:34:12;13.90;99.90
21602;DHT22;10963;50.934;4.668;2022-11-10T16:36:41;13.90;99.90
21602;DHT22;10963;50.934;4.668;2022-11-10T16:39:13;13.90;99.90
21602;DHT22;10963;50.934;4.668;2022-11-10T16:41:42;14.00;99.90
21602;DHT22;10963;50.934;4.668;2022-11-10T16:44:14;13.90;99.90
21602;DHT22;10963;50.934;4.668;2022-11-10T16:46:42;13.90;99.90
21602;DHT22;10963;50.934;4.668;2022-11-10T16:49:30;13.80;99.90
21602;DHT22;10963;50.934;4.668;2022-11-10T16:52:13;13.80;99.90
21602;DHT22;10963;50.934;4.668;2022-11-10T16:54:41;13.60;99.90
21602;DHT22;10963;50.934;4.668;2022-11-10T16:57:15;13.60;99.90
21602;DHT22;10963;50.934;4.668;2022-11-10T16:59:40;13.50;99.90
21602;DHT22;10963;50.934;4.668;2022-11-10T17:02:29;13.50;99.90
21602;DHT22;10963;50.934;4.668;2022-11-10T17:05:00;13.50;99.90
21602;DHT22;10963;50.934;4.668;2022-11-10T17:07:27;13.50;99.90
21602;DHT22;10963;50.934;4.668;2022-11-10T17:09:58;13.50;99.90
21602;DHT22;10963;50.934;4.668;2022-11-10T17:12:24;13.50;99.90
21602;DHT22;10963;50.934;4.668;2022-11-10T17:14:52;13.40;99.90
21602;DHT22;10963;50.934;4.668;2022-11-10T17:17:18;13.30;99.90
21602;DHT22;10963;50.934;4.668;2022-11-10T17:19:51;13.20;99.90
21602;DHT22;10963;50.934;4.668;2022-11-10T17:22:19;13.10;99.90
21602;DHT22;10963;50.934;4.668;2022-11-10T17:24:51;13.10;99.90
21602;DHT22;10963;50.934;4.668;2022-11-10T17:27:18;13.00;99.90
21602;DHT22;10963;50.934;4.668;2022-11-10T17:29:45;13.00;99.90
21602;DHT22;10963;50.934;4.668;2022-11-10T17:32:10;12.90;99.90
21602;DHT22;10963;50.934;4.668;2022-11-10T17:34:39;13.00;99.90
21602;DHT22;10963;50.934;4.668;2022-11-10T17:37:04;12.90;99.90
21602;DHT22;10963;50.934;4.668;2022-11-10T17:39:32;12.80;99.90
21602;DHT22;10963;50.934;4.668;2022-11-10T17:42:01;12.90;99.90
21602;DHT22;10963;50.934;4.668;2022-11-10T17:44:27;12.90;99.90
21602;DHT22;10963;50.934;4.668;2022-11-10T17:46:53;12.90;99.90
21602;DHT22;10963;50.934;4.668;2022-11-10T17:49:18;12.90;99.90
21602;DHT22;10963;50.934;4.668;2022-11-10T17:51:50;12.80;99.90
21602;DHT22;10963;50.934;4.668;2022-11-10T17:54:16;12.70;99.90
21602;DHT22;10963;50.934;4.668;2022-11-10T17:56:42;12.60;99.90